sensor_id;sensor_type;location;lat;lon;timestamp;P1;durP1;ratioP1;P2;durP2;ratioP2
27505;SDS011;14939;43.596;1.320;2022-09-09T00:04:34;5.63;;;1.90;;
27505;SDS011;14939;43.596;1.320;2022-09-09T00:07:13;7.93;;;1.90;;
27505;SDS011;14939;43.596;1.320;2022-09-09T00:12:47;7.10;;;1.92;;
27505;SDS011;14939;43.596;1.320;2022-09-09T00:15:23;7.20;;;1.95;;
27505;SDS011;14939;43.596;1.320;2022-09-09T00:17:59;4.93;;;1.85;;
27505;SDS011;14939;43.596;1.320;2022-09-09T00:25:54;3.95;;;1.70;;
27505;SDS011;14939;43.596;1.320;2022-09-09T00:28:39;4.10;;;1.77;;
27505;SDS011;14939;43.596;1.320;2022-09-09T00:31:15;4.82;;;1.92;;
27505;SDS011;14939;43.596;1.320;2022-09-09T00:33:45;7.00;;;2.08;;
27505;SDS011;14939;43.596;1.320;2022-09-09T00:36:14;5.35;;;1.67;;
27505;SDS011;14939;43.596;1.320;2022-09-09T00:38:49;5.70;;;1.50;;
27505;SDS011;14939;43.596;1.320;2022-09-09T00:44:06;9.10;;;1.60;;
27505;SDS011;14939;43.596;1.320;2022-09-09T00:55:16;4.68;;;1.65;;
27505;SDS011;14939;43.596;1.320;2022-09-09T00:57:48;3.67;;;1.45;;
27505;SDS011;14939;43.596;1.320;2022-09-09T01:05:20;5.07;;;1.60;;
27505;SDS011;14939;43.596;1.320;2022-09-09T01:08:03;4.00;;;1.50;;
27505;SDS011;14939;43.596;1.320;2022-09-09T01:10:50;4.22;;;1.65;;
27505;SDS011;14939;43.596;1.320;2022-09-09T01:13:26;4.70;;;1.50;;
27505;SDS011;14939;43.596;1.320;2022-09-09T01:15:55;4.35;;;1.70;;
27505;SDS011;14939;43.596;1.320;2022-09-09T01:18:34;6.30;;;1.83;;
27505;SDS011;14939;43.596;1.320;2022-09-09T01:29:06;3.63;;;1.65;;
27505;SDS011;14939;43.596;1.320;2022-09-09T01:31:38;4.43;;;1.52;;
27505;SDS011;14939;43.596;1.320;2022-09-09T01:34:13;7.00;;;1.90;;
27505;SDS011;14939;43.596;1.320;2022-09-09T01:36:44;4.32;;;1.90;;
27505;SDS011;14939;43.596;1.320;2022-09-09T01:39:15;4.30;;;1.80;;
27505;SDS011;14939;43.596;1.320;2022-09-09T01:41:41;4.18;;;1.70;;
27505;SDS011;14939;43.596;1.320;2022-09-09T01:44:07;5.95;;;1.70;;
27505;SDS011;14939;43.596;1.320;2022-09-09T01:46:33;6.95;;;1.90;;
27505;SDS011;14939;43.596;1.320;2022-09-09T01:52:02;3.83;;;1.70;;
27505;SDS011;14939;43.596;1.320;2022-09-09T01:54:46;4.13;;;1.70;;
27505;SDS011;14939;43.596;1.320;2022-09-09T01:57:17;4.78;;;1.50;;
27505;SDS011;14939;43.596;1.320;2022-09-09T02:08:05;5.22;;;1.50;;
27505;SDS011;14939;43.596;1.320;2022-09-09T02:10:37;5.30;;;1.52;;
27505;SDS011;14939;43.596;1.320;2022-09-09T02:13:16;5.67;;;1.50;;
27505;SDS011;14939;43.596;1.320;2022-09-09T02:18:33;3.75;;;1.63;;
27505;SDS011;14939;43.596;1.320;2022-09-09T02:21:16;6.40;;;1.50;;
27505;SDS011;14939;43.596;1.320;2022-09-09T02:23:43;5.38;;;1.75;;
27505;SDS011;14939;43.596;1.320;2022-09-09T02:26:12;3.55;;;1.70;;
27505;SDS011;14939;43.596;1.320;2022-09-09T02:28:44;6.57;;;2.08;;
27505;SDS011;14939;43.596;1.320;2022-09-09T02:31:12;7.63;;;1.80;;
27505;SDS011;14939;43.596;1.320;2022-09-09T02:33:41;6.28;;;1.60;;
27505;SDS011;14939;43.596;1.320;2022-09-09T02:36:10;3.75;;;1.70;;
27505;SDS011;14939;43.596;1.320;2022-09-09T02:38:42;4.30;;;1.85;;
27505;SDS011;14939;43.596;1.320;2022-09-09T02:41:22;4.40;;;1.70;;
27505;SDS011;14939;43.596;1.320;2022-09-09T02:43:52;3.97;;;1.90;;
27505;SDS011;14939;43.596;1.320;2022-09-09T02:49:03;8.10;;;1.65;;
27505;SDS011;14939;43.596;1.320;2022-09-09T02:56:56;5.20;;;1.80;;
27505;SDS011;14939;43.596;1.320;2022-09-09T02:59:31;7.90;;;1.85;;
27505;SDS011;14939;43.596;1.320;2022-09-09T03:01:57;3.70;;;1.50;;
27505;SDS011;14939;43.596;1.320;2022-09-09T03:04:22;5.30;;;1.70;;
27505;SDS011;14939;43.596;1.320;2022-09-09T03:06:49;6.20;;;1.70;;
27505;SDS011;14939;43.596;1.320;2022-09-09T03:09:15;7.45;;;1.88;;
27505;SDS011;14939;43.596;1.320;2022-09-09T03:11:41;4.95;;;1.90;;
27505;SDS011;14939;43.596;1.320;2022-09-09T03:14:07;4.20;;;1.50;;
27505;SDS011;14939;43.596;1.320;2022-09-09T03:16:33;7.18;;;1.80;;
27505;SDS011;14939;43.596;1.320;2022-09-09T03:19:15;5.00;;;2.17;;
27505;SDS011;14939;43.596;1.320;2022-09-09T03:21:43;6.53;;;2.13;;
27505;SDS011;14939;43.596;1.320;2022-09-09T03:24:09;5.55;;;1.60;;
27505;SDS011;14939;43.596;1.320;2022-09-09T03:26:35;4.57;;;1.73;;
27505;SDS011;14939;43.596;1.320;2022-09-09T03:29:02;4.53;;;1.80;;
27505;SDS011;14939;43.596;1.320;2022-09-09T03:31:32;7.82;;;1.75;;
27505;SDS011;14939;43.596;1.320;2022-09-09T03:33:58;10.18;;;2.35;;
27505;SDS011;14939;43.596;1.320;2022-09-09T03:36:27;8.27;;;1.80;;
27505;SDS011;14939;43.596;1.320;2022-09-09T03:38:53;3.63;;;1.58;;
27505;SDS011;14939;43.596;1.320;2022-09-09T03:41:20;6.38;;;2.05;;
27505;SDS011;14939;43.596;1.320;2022-09-09T03:43:52;6.68;;;1.70;;
27505;SDS011;14939;43.596;1.320;2022-09-09T03:46:22;5.20;;;2.03;;
27505;SDS011;14939;43.596;1.320;2022-09-09T03:48:48;5.10;;;1.60;;
27505;SDS011;14939;43.596;1.320;2022-09-09T03:51:15;3.63;;;1.80;;
27505;SDS011;14939;43.596;1.320;2022-09-09T03:53:40;5.57;;;1.60;;
27505;SDS011;14939;43.596;1.320;2022-09-09T03:56:08;7.82;;;2.00;;
27505;SDS011;14939;43.596;1.320;2022-09-09T03:58:34;5.10;;;2.08;;
27505;SDS011;14939;43.596;1.320;2022-09-09T04:01:03;5.13;;;1.50;;
27505;SDS011;14939;43.596;1.320;2022-09-09T04:03:34;7.10;;;1.98;;
27505;SDS011;14939;43.596;1.320;2022-09-09T04:06:00;4.25;;;2.05;;
27505;SDS011;14939;43.596;1.320;2022-09-09T04:08:29;5.47;;;1.70;;
27505;SDS011;14939;43.596;1.320;2022-09-09T04:11:00;6.35;;;1.88;;
27505;SDS011;14939;43.596;1.320;2022-09-09T04:13:30;5.97;;;1.83;;
27505;SDS011;14939;43.596;1.320;2022-09-09T04:15:57;4.38;;;2.00;;
27505;SDS011;14939;43.596;1.320;2022-09-09T04:18:24;7.60;;;2.13;;
27505;SDS011;14939;43.596;1.320;2022-09-09T04:20:51;3.63;;;2.00;;
27505;SDS011;14939;43.596;1.320;2022-09-09T04:23:18;9.15;;;1.98;;
27505;SDS011;14939;43.596;1.320;2022-09-09T04:25:49;6.35;;;2.08;;
27505;SDS011;14939;43.596;1.320;2022-09-09T04:28:19;6.57;;;2.00;;
27505;SDS011;14939;43.596;1.320;2022-09-09T04:30:46;8.50;;;2.25;;
27505;SDS011;14939;43.596;1.320;2022-09-09T04:33:12;6.78;;;2.20;;
27505;SDS011;14939;43.596;1.320;2022-09-09T04:35:39;4.85;;;1.90;;
27505;SDS011;14939;43.596;1.320;2022-09-09T04:38:13;5.65;;;2.05;;
27505;SDS011;14939;43.596;1.320;2022-09-09T04:40:38;5.18;;;2.00;;
27505;SDS011;14939;43.596;1.320;2022-09-09T04:43:08;6.60;;;2.10;;
27505;SDS011;14939;43.596;1.320;2022-09-09T04:45:34;4.32;;;2.10;;
27505;SDS011;14939;43.596;1.320;2022-09-09T04:48:00;5.82;;;2.25;;
27505;SDS011;14939;43.596;1.320;2022-09-09T04:50:27;4.78;;;2.30;;
27505;SDS011;14939;43.596;1.320;2022-09-09T04:52:53;7.13;;;2.63;;
27505;SDS011;14939;43.596;1.320;2022-09-09T04:55:19;6.30;;;2.30;;
27505;SDS011;14939;43.596;1.320;2022-09-09T04:57:45;5.82;;;2.28;;
27505;SDS011;14939;43.596;1.320;2022-09-09T05:00:11;7.00;;;2.30;;
27505;SDS011;14939;43.596;1.320;2022-09-09T05:02:38;4.82;;;2.05;;
27505;SDS011;14939;43.596;1.320;2022-09-09T05:05:05;3.55;;;2.00;;
27505;SDS011;14939;43.596;1.320;2022-09-09T05:07:31;5.43;;;2.05;;
27505;SDS011;14939;43.596;1.320;2022-09-09T05:09:57;7.25;;;2.40;;
27505;SDS011;14939;43.596;1.320;2022-09-09T05:12:23;5.47;;;2.08;;
27505;SDS011;14939;43.596;1.320;2022-09-09T05:14:51;7.32;;;2.42;;
27505;SDS011;14939;43.596;1.320;2022-09-09T05:17:17;4.75;;;2.00;;
27505;SDS011;14939;43.596;1.320;2022-09-09T05:19:43;7.60;;;2.38;;
27505;SDS011;14939;43.596;1.320;2022-09-09T05:22:09;4.82;;;2.30;;
27505;SDS011;14939;43.596;1.320;2022-09-09T05:24:36;4.18;;;2.22;;
27505;SDS011;14939;43.596;1.320;2022-09-09T05:27:02;5.15;;;2.45;;
27505;SDS011;14939;43.596;1.320;2022-09-09T05:29:28;6.32;;;2.55;;
27505;SDS011;14939;43.596;1.320;2022-09-09T05:31:53;5.47;;;2.67;;
27505;SDS011;14939;43.596;1.320;2022-09-09T05:34:19;7.20;;;2.60;;
27505;SDS011;14939;43.596;1.320;2022-09-09T05:36:45;4.05;;;2.75;;
27505;SDS011;14939;43.596;1.320;2022-09-09T05:39:12;6.43;;;2.78;;
27505;SDS011;14939;43.596;1.320;2022-09-09T05:41:37;5.68;;;2.80;;
27505;SDS011;14939;43.596;1.320;2022-09-09T05:44:03;6.30;;;3.00;;
27505;SDS011;14939;43.596;1.320;2022-09-09T05:46:30;9.02;;;2.90;;
27505;SDS011;14939;43.596;1.320;2022-09-09T05:48:55;7.07;;;3.30;;
27505;SDS011;14939;43.596;1.320;2022-09-09T05:51:25;6.82;;;3.10;;
27505;SDS011;14939;43.596;1.320;2022-09-09T05:53:53;6.72;;;2.88;;
27505;SDS011;14939;43.596;1.320;2022-09-09T05:56:21;7.28;;;3.40;;
27505;SDS011;14939;43.596;1.320;2022-09-09T05:58:50;6.10;;;3.20;;
27505;SDS011;14939;43.596;1.320;2022-09-09T06:01:19;6.15;;;3.08;;
27505;SDS011;14939;43.596;1.320;2022-09-09T06:03:47;8.30;;;3.47;;
27505;SDS011;14939;43.596;1.320;2022-09-09T06:06:15;5.72;;;3.30;;
27505;SDS011;14939;43.596;1.320;2022-09-09T06:08:43;9.32;;;3.50;;
27505;SDS011;14939;43.596;1.320;2022-09-09T06:11:11;8.95;;;3.65;;
27505;SDS011;14939;43.596;1.320;2022-09-09T06:13:37;7.65;;;3.50;;
27505;SDS011;14939;43.596;1.320;2022-09-09T06:16:04;6.63;;;3.58;;
27505;SDS011;14939;43.596;1.320;2022-09-09T06:18:36;8.95;;;3.85;;
27505;SDS011;14939;43.596;1.320;2022-09-09T06:21:03;6.50;;;3.70;;
27505;SDS011;14939;43.596;1.320;2022-09-09T06:23:31;8.07;;;3.63;;
27505;SDS011;14939;43.596;1.320;2022-09-09T06:26:00;6.70;;;3.60;;
27505;SDS011;14939;43.596;1.320;2022-09-09T06:28:37;10.13;;;4.03;;
27505;SDS011;14939;43.596;1.320;2022-09-09T06:31:04;9.23;;;4.18;;
27505;SDS011;14939;43.596;1.320;2022-09-09T06:33:32;10.20;;;4.40;;
27505;SDS011;14939;43.596;1.320;2022-09-09T06:36:06;8.65;;;4.63;;
27505;SDS011;14939;43.596;1.320;2022-09-09T06:38:43;10.55;;;4.70;;
27505;SDS011;14939;43.596;1.320;2022-09-09T06:41:10;10.18;;;5.40;;
27505;SDS011;14939;43.596;1.320;2022-09-09T06:43:36;7.97;;;5.53;;
27505;SDS011;14939;43.596;1.320;2022-09-09T06:46:06;14.18;;;5.25;;
27505;SDS011;14939;43.596;1.320;2022-09-09T06:48:35;13.82;;;5.47;;
27505;SDS011;14939;43.596;1.320;2022-09-09T06:51:06;7.85;;;4.88;;
27505;SDS011;14939;43.596;1.320;2022-09-09T06:56:01;10.20;;;5.00;;
27505;SDS011;14939;43.596;1.320;2022-09-09T06:58:28;9.63;;;4.85;;
27505;SDS011;14939;43.596;1.320;2022-09-09T07:01:04;9.27;;;5.40;;
27505;SDS011;14939;43.596;1.320;2022-09-09T07:03:30;12.25;;;5.40;;
27505;SDS011;14939;43.596;1.320;2022-09-09T07:05:56;11.98;;;5.53;;
27505;SDS011;14939;43.596;1.320;2022-09-09T07:08:22;11.73;;;4.50;;
27505;SDS011;14939;43.596;1.320;2022-09-09T07:10:49;7.07;;;4.15;;
27505;SDS011;14939;43.596;1.320;2022-09-09T07:13:18;7.32;;;4.55;;
27505;SDS011;14939;43.596;1.320;2022-09-09T07:15:50;7.97;;;4.30;;
27505;SDS011;14939;43.596;1.320;2022-09-09T07:18:16;7.63;;;4.63;;
27505;SDS011;14939;43.596;1.320;2022-09-09T07:20:42;11.85;;;3.88;;
27505;SDS011;14939;43.596;1.320;2022-09-09T07:23:07;6.53;;;3.78;;
27505;SDS011;14939;43.596;1.320;2022-09-09T07:25:33;7.57;;;3.58;;
27505;SDS011;14939;43.596;1.320;2022-09-09T07:27:59;8.13;;;3.05;;
27505;SDS011;14939;43.596;1.320;2022-09-09T07:30:24;7.38;;;3.50;;
27505;SDS011;14939;43.596;1.320;2022-09-09T07:32:51;7.75;;;3.03;;
27505;SDS011;14939;43.596;1.320;2022-09-09T07:35:17;4.95;;;3.00;;
27505;SDS011;14939;43.596;1.320;2022-09-09T07:37:43;4.72;;;2.85;;
27505;SDS011;14939;43.596;1.320;2022-09-09T07:40:10;8.15;;;3.13;;
27505;SDS011;14939;43.596;1.320;2022-09-09T07:42:35;7.30;;;3.05;;
27505;SDS011;14939;43.596;1.320;2022-09-09T07:45:02;8.30;;;3.20;;
27505;SDS011;14939;43.596;1.320;2022-09-09T07:47:29;5.38;;;3.00;;
27505;SDS011;14939;43.596;1.320;2022-09-09T07:49:54;5.50;;;2.75;;
27505;SDS011;14939;43.596;1.320;2022-09-09T07:52:21;4.93;;;2.42;;
27505;SDS011;14939;43.596;1.320;2022-09-09T07:54:46;6.57;;;3.35;;
27505;SDS011;14939;43.596;1.320;2022-09-09T07:57:12;4.90;;;2.78;;
27505;SDS011;14939;43.596;1.320;2022-09-09T07:59:38;4.82;;;2.90;;
27505;SDS011;14939;43.596;1.320;2022-09-09T08:02:04;6.80;;;2.70;;
27505;SDS011;14939;43.596;1.320;2022-09-09T08:04:30;9.80;;;2.90;;
27505;SDS011;14939;43.596;1.320;2022-09-09T08:06:56;4.07;;;2.42;;
27505;SDS011;14939;43.596;1.320;2022-09-09T08:09:24;4.88;;;2.60;;
27505;SDS011;14939;43.596;1.320;2022-09-09T08:11:53;6.07;;;2.70;;
27505;SDS011;14939;43.596;1.320;2022-09-09T08:14:21;6.70;;;3.00;;
27505;SDS011;14939;43.596;1.320;2022-09-09T08:16:48;6.47;;;3.10;;
27505;SDS011;14939;43.596;1.320;2022-09-09T08:19:15;6.15;;;2.90;;
27505;SDS011;14939;43.596;1.320;2022-09-09T08:21:42;7.78;;;3.20;;
27505;SDS011;14939;43.596;1.320;2022-09-09T08:24:09;7.00;;;3.38;;
27505;SDS011;14939;43.596;1.320;2022-09-09T08:26:37;6.15;;;3.42;;
27505;SDS011;14939;43.596;1.320;2022-09-09T08:29:05;5.95;;;3.65;;
27505;SDS011;14939;43.596;1.320;2022-09-09T08:33:59;6.60;;;3.70;;
27505;SDS011;14939;43.596;1.320;2022-09-09T08:36:28;8.23;;;3.88;;
27505;SDS011;14939;43.596;1.320;2022-09-09T08:38:56;7.25;;;3.72;;
27505;SDS011;14939;43.596;1.320;2022-09-09T08:44:07;8.68;;;3.78;;
27505;SDS011;14939;43.596;1.320;2022-09-09T08:49:16;5.45;;;3.20;;
27505;SDS011;14939;43.596;1.320;2022-09-09T08:51:53;4.38;;;2.60;;
27505;SDS011;14939;43.596;1.320;2022-09-09T08:54:21;6.20;;;3.80;;
27505;SDS011;14939;43.596;1.320;2022-09-09T08:56:48;10.43;;;4.00;;
27505;SDS011;14939;43.596;1.320;2022-09-09T08:59:15;10.27;;;3.70;;
27505;SDS011;14939;43.596;1.320;2022-09-09T09:07:24;5.38;;;1.80;;
27505;SDS011;14939;43.596;1.320;2022-09-09T09:12:51;5.38;;;1.75;;
27505;SDS011;14939;43.596;1.320;2022-09-09T09:15:25;7.22;;;1.92;;
27505;SDS011;14939;43.596;1.320;2022-09-09T09:17:55;6.30;;;2.15;;
27505;SDS011;14939;43.596;1.320;2022-09-09T09:24:04;7.93;;;2.42;;
27505;SDS011;14939;43.596;1.320;2022-09-09T09:26:40;8.07;;;2.85;;
27505;SDS011;14939;43.596;1.320;2022-09-09T09:29:16;9.35;;;3.45;;
27505;SDS011;14939;43.596;1.320;2022-09-09T09:31:48;12.13;;;3.00;;
27505;SDS011;14939;43.596;1.320;2022-09-09T09:34:19;9.95;;;3.08;;
27505;SDS011;14939;43.596;1.320;2022-09-09T09:36:46;7.85;;;2.95;;
27505;SDS011;14939;43.596;1.320;2022-09-09T09:39:30;7.35;;;3.08;;
27505;SDS011;14939;43.596;1.320;2022-09-09T09:42:11;8.57;;;3.10;;
27505;SDS011;14939;43.596;1.320;2022-09-09T09:44:39;9.27;;;2.65;;
27505;SDS011;14939;43.596;1.320;2022-09-09T09:49:39;7.07;;;3.17;;
27505;SDS011;14939;43.596;1.320;2022-09-09T09:52:28;5.40;;;3.08;;
27505;SDS011;14939;43.596;1.320;2022-09-09T09:54:56;5.63;;;2.55;;
27505;SDS011;14939;43.596;1.320;2022-09-09T09:57:25;8.77;;;3.10;;
27505;SDS011;14939;43.596;1.320;2022-09-09T10:00:00;5.97;;;2.95;;
27505;SDS011;14939;43.596;1.320;2022-09-09T10:02:39;6.55;;;3.05;;
27505;SDS011;14939;43.596;1.320;2022-09-09T10:05:21;5.88;;;3.00;;
27505;SDS011;14939;43.596;1.320;2022-09-09T10:13:48;5.25;;;2.70;;
27505;SDS011;14939;43.596;1.320;2022-09-09T10:19:19;5.20;;;2.67;;
27505;SDS011;14939;43.596;1.320;2022-09-09T10:21:56;9.07;;;2.85;;
27505;SDS011;14939;43.596;1.320;2022-09-09T10:30:49;8.25;;;3.00;;
27505;SDS011;14939;43.596;1.320;2022-09-09T10:33:28;5.65;;;2.22;;
27505;SDS011;14939;43.596;1.320;2022-09-09T10:36:27;5.78;;;2.60;;
27505;SDS011;14939;43.596;1.320;2022-09-09T10:57:50;10.65;;;2.65;;
27505;SDS011;14939;43.596;1.320;2022-09-09T11:00:21;5.32;;;2.35;;
27505;SDS011;14939;43.596;1.320;2022-09-09T11:03:03;9.23;;;2.53;;
27505;SDS011;14939;43.596;1.320;2022-09-09T11:05:42;7.30;;;2.63;;
27505;SDS011;14939;43.596;1.320;2022-09-09T11:08:16;6.07;;;3.05;;
27505;SDS011;14939;43.596;1.320;2022-09-09T11:11:04;5.40;;;2.10;;
27505;SDS011;14939;43.596;1.320;2022-09-09T11:13:41;5.50;;;2.50;;
27505;SDS011;14939;43.596;1.320;2022-09-09T11:19:29;6.32;;;2.63;;
27505;SDS011;14939;43.596;1.320;2022-09-09T11:21:56;9.30;;;2.38;;
27505;SDS011;14939;43.596;1.320;2022-09-09T11:27:11;4.90;;;2.30;;
27505;SDS011;14939;43.596;1.320;2022-09-09T11:35:37;5.53;;;2.20;;
27505;SDS011;14939;43.596;1.320;2022-09-09T11:41:03;6.65;;;2.78;;
27505;SDS011;14939;43.596;1.320;2022-09-09T11:45:58;7.25;;;1.85;;
27505;SDS011;14939;43.596;1.320;2022-09-09T11:53:36;9.95;;;2.20;;
27505;SDS011;14939;43.596;1.320;2022-09-09T11:56:23;7.95;;;2.40;;
27505;SDS011;14939;43.596;1.320;2022-09-09T11:58:56;8.50;;;2.40;;
27505;SDS011;14939;43.596;1.320;2022-09-09T12:01:35;6.90;;;2.38;;
27505;SDS011;14939;43.596;1.320;2022-09-09T12:06:44;6.78;;;2.17;;
27505;SDS011;14939;43.596;1.320;2022-09-09T12:09:23;6.03;;;2.40;;
27505;SDS011;14939;43.596;1.320;2022-09-09T12:12:32;5.53;;;1.73;;
27505;SDS011;14939;43.596;1.320;2022-09-09T12:15:03;9.43;;;2.25;;
27505;SDS011;14939;43.596;1.320;2022-09-09T12:17:46;7.30;;;1.92;;
27505;SDS011;14939;43.596;1.320;2022-09-09T12:20:35;6.28;;;2.13;;
27505;SDS011;14939;43.596;1.320;2022-09-09T12:25:54;7.28;;;1.60;;
27505;SDS011;14939;43.596;1.320;2022-09-09T12:34:02;4.55;;;1.73;;
27505;SDS011;14939;43.596;1.320;2022-09-09T12:36:36;6.10;;;1.50;;
27505;SDS011;14939;43.596;1.320;2022-09-09T12:39:14;4.82;;;1.20;;
27505;SDS011;14939;43.596;1.320;2022-09-09T12:41:50;5.18;;;1.30;;
27505;SDS011;14939;43.596;1.320;2022-09-09T12:44:22;4.45;;;1.23;;
27505;SDS011;14939;43.596;1.320;2022-09-09T12:46:50;10.25;;;1.60;;
27505;SDS011;14939;43.596;1.320;2022-09-09T12:49:34;4.95;;;1.27;;
27505;SDS011;14939;43.596;1.320;2022-09-09T12:52:07;8.48;;;1.30;;
27505;SDS011;14939;43.596;1.320;2022-09-09T12:54:46;4.75;;;1.17;;
27505;SDS011;14939;43.596;1.320;2022-09-09T12:57:13;3.25;;;0.90;;
27505;SDS011;14939;43.596;1.320;2022-09-09T12:59:40;5.35;;;1.05;;
27505;SDS011;14939;43.596;1.320;2022-09-09T13:02:23;7.65;;;1.63;;
27505;SDS011;14939;43.596;1.320;2022-09-09T13:04:51;6.72;;;1.30;;
27505;SDS011;14939;43.596;1.320;2022-09-09T13:07:19;18.52;;;2.13;;
27505;SDS011;14939;43.596;1.320;2022-09-09T13:09:47;5.60;;;1.20;;
27505;SDS011;14939;43.596;1.320;2022-09-09T13:12:15;5.20;;;1.30;;
27505;SDS011;14939;43.596;1.320;2022-09-09T13:14:44;4.97;;;1.20;;
27505;SDS011;14939;43.596;1.320;2022-09-09T13:17:23;8.10;;;1.75;;
27505;SDS011;14939;43.596;1.320;2022-09-09T13:19:51;9.05;;;1.30;;
27505;SDS011;14939;43.596;1.320;2022-09-09T13:27:34;6.45;;;1.60;;
27505;SDS011;14939;43.596;1.320;2022-09-09T13:30:19;9.40;;;1.52;;
27505;SDS011;14939;43.596;1.320;2022-09-09T13:32:47;7.60;;;1.30;;
27505;SDS011;14939;43.596;1.320;2022-09-09T13:35:34;9.13;;;1.58;;
27505;SDS011;14939;43.596;1.320;2022-09-09T13:38:07;6.70;;;1.77;;
27505;SDS011;14939;43.596;1.320;2022-09-09T13:40:34;6.55;;;1.20;;
27505;SDS011;14939;43.596;1.320;2022-09-09T13:43:01;7.28;;;1.98;;
27505;SDS011;14939;43.596;1.320;2022-09-09T13:45:28;6.75;;;1.70;;
27505;SDS011;14939;43.596;1.320;2022-09-09T13:47:54;6.65;;;1.40;;
27505;SDS011;14939;43.596;1.320;2022-09-09T13:52:47;4.75;;;1.20;;
27505;SDS011;14939;43.596;1.320;2022-09-09T13:55:14;7.72;;;1.83;;
27505;SDS011;14939;43.596;1.320;2022-09-09T13:57:49;4.40;;;1.30;;
27505;SDS011;14939;43.596;1.320;2022-09-09T14:00:16;6.38;;;1.50;;
27505;SDS011;14939;43.596;1.320;2022-09-09T14:02:42;4.60;;;1.33;;
27505;SDS011;14939;43.596;1.320;2022-09-09T14:05:09;8.15;;;1.60;;
27505;SDS011;14939;43.596;1.320;2022-09-09T14:07:36;4.47;;;1.50;;
27505;SDS011;14939;43.596;1.320;2022-09-09T14:10:03;5.38;;;1.50;;
27505;SDS011;14939;43.596;1.320;2022-09-09T14:12:30;3.63;;;1.35;;
27505;SDS011;14939;43.596;1.320;2022-09-09T14:14:55;7.80;;;1.60;;
27505;SDS011;14939;43.596;1.320;2022-09-09T14:17:21;7.35;;;2.00;;
27505;SDS011;14939;43.596;1.320;2022-09-09T14:19:47;6.13;;;1.55;;
27505;SDS011;14939;43.596;1.320;2022-09-09T14:22:13;4.40;;;1.50;;
27505;SDS011;14939;43.596;1.320;2022-09-09T14:24:39;5.07;;;1.42;;
27505;SDS011;14939;43.596;1.320;2022-09-09T14:27:06;4.65;;;1.38;;
27505;SDS011;14939;43.596;1.320;2022-09-09T14:29:31;7.68;;;1.65;;
27505;SDS011;14939;43.596;1.320;2022-09-09T14:31:58;7.40;;;1.60;;
27505;SDS011;14939;43.596;1.320;2022-09-09T14:34:25;6.88;;;1.52;;
27505;SDS011;14939;43.596;1.320;2022-09-09T14:36:51;7.00;;;1.45;;
27505;SDS011;14939;43.596;1.320;2022-09-09T14:39:17;11.73;;;1.58;;
27505;SDS011;14939;43.596;1.320;2022-09-09T14:41:42;7.45;;;1.52;;
27505;SDS011;14939;43.596;1.320;2022-09-09T14:44:08;6.40;;;1.67;;
27505;SDS011;14939;43.596;1.320;2022-09-09T14:46:34;4.80;;;1.25;;
27505;SDS011;14939;43.596;1.320;2022-09-09T14:48:59;6.72;;;1.50;;
27505;SDS011;14939;43.596;1.320;2022-09-09T14:51:25;6.45;;;1.50;;
27505;SDS011;14939;43.596;1.320;2022-09-09T14:53:54;7.00;;;1.70;;
27505;SDS011;14939;43.596;1.320;2022-09-09T14:56:23;9.43;;;1.60;;
27505;SDS011;14939;43.596;1.320;2022-09-09T14:58:53;7.97;;;1.30;;
27505;SDS011;14939;43.596;1.320;2022-09-09T15:01:20;4.43;;;1.30;;
27505;SDS011;14939;43.596;1.320;2022-09-09T15:03:51;14.10;;;1.80;;
27505;SDS011;14939;43.596;1.320;2022-09-09T15:06:19;8.23;;;1.40;;
27505;SDS011;14939;43.596;1.320;2022-09-09T15:08:45;8.40;;;1.42;;
27505;SDS011;14939;43.596;1.320;2022-09-09T15:11:13;15.18;;;2.08;;
27505;SDS011;14939;43.596;1.320;2022-09-09T15:13:40;5.35;;;1.35;;
27505;SDS011;14939;43.596;1.320;2022-09-09T15:16:09;6.57;;;1.45;;
27505;SDS011;14939;43.596;1.320;2022-09-09T15:18:40;17.15;;;1.60;;
27505;SDS011;14939;43.596;1.320;2022-09-09T15:21:14;4.60;;;1.33;;
27505;SDS011;14939;43.596;1.320;2022-09-09T15:23:41;6.93;;;1.50;;
27505;SDS011;14939;43.596;1.320;2022-09-09T15:26:07;8.27;;;2.00;;
27505;SDS011;14939;43.596;1.320;2022-09-09T15:28:35;5.72;;;1.40;;
27505;SDS011;14939;43.596;1.320;2022-09-09T15:31:06;6.00;;;1.35;;
27505;SDS011;14939;43.596;1.320;2022-09-09T15:33:34;5.60;;;1.33;;
27505;SDS011;14939;43.596;1.320;2022-09-09T15:38:58;4.90;;;1.40;;
27505;SDS011;14939;43.596;1.320;2022-09-09T15:41:25;8.13;;;1.77;;
27505;SDS011;14939;43.596;1.320;2022-09-09T15:43:51;5.00;;;1.30;;
27505;SDS011;14939;43.596;1.320;2022-09-09T15:48:53;3.30;;;1.25;;
27505;SDS011;14939;43.596;1.320;2022-09-09T15:51:21;4.80;;;1.30;;
27505;SDS011;14939;43.596;1.320;2022-09-09T15:53:48;4.85;;;1.50;;
27505;SDS011;14939;43.596;1.320;2022-09-09T15:56:18;3.72;;;1.20;;
27505;SDS011;14939;43.596;1.320;2022-09-09T15:58:43;4.85;;;1.30;;
27505;SDS011;14939;43.596;1.320;2022-09-09T16:01:09;5.57;;;1.45;;
27505;SDS011;14939;43.596;1.320;2022-09-09T16:03:37;5.25;;;1.52;;
27505;SDS011;14939;43.596;1.320;2022-09-09T16:06:06;7.03;;;1.17;;
27505;SDS011;14939;43.596;1.320;2022-09-09T16:08:35;15.00;;;1.98;;
27505;SDS011;14939;43.596;1.320;2022-09-09T16:11:06;4.60;;;1.42;;
27505;SDS011;14939;43.596;1.320;2022-09-09T16:13:34;3.55;;;1.27;;
27505;SDS011;14939;43.596;1.320;2022-09-09T16:16:04;7.13;;;1.40;;
27505;SDS011;14939;43.596;1.320;2022-09-09T16:18:38;4.68;;;1.33;;
27505;SDS011;14939;43.596;1.320;2022-09-09T16:21:05;3.47;;;1.20;;
27505;SDS011;14939;43.596;1.320;2022-09-09T16:23:33;5.50;;;1.20;;
27505;SDS011;14939;43.596;1.320;2022-09-09T16:26:01;3.30;;;1.23;;
27505;SDS011;14939;43.596;1.320;2022-09-09T16:28:28;6.15;;;1.20;;
27505;SDS011;14939;43.596;1.320;2022-09-09T16:30:54;4.22;;;1.00;;
27505;SDS011;14939;43.596;1.320;2022-09-09T16:33:20;5.00;;;1.15;;
27505;SDS011;14939;43.596;1.320;2022-09-09T16:35:47;5.95;;;1.10;;
27505;SDS011;14939;43.596;1.320;2022-09-09T16:38:14;3.45;;;1.20;;
27505;SDS011;14939;43.596;1.320;2022-09-09T16:40:40;3.22;;;0.90;;
27505;SDS011;14939;43.596;1.320;2022-09-09T16:43:06;7.75;;;1.20;;
27505;SDS011;14939;43.596;1.320;2022-09-09T16:45:32;3.38;;;1.05;;
27505;SDS011;14939;43.596;1.320;2022-09-09T16:47:58;3.75;;;1.17;;
27505;SDS011;14939;43.596;1.320;2022-09-09T16:50:25;4.00;;;1.02;;
27505;SDS011;14939;43.596;1.320;2022-09-09T16:52:52;4.82;;;1.20;;
27505;SDS011;14939;43.596;1.320;2022-09-09T16:55:18;9.27;;;1.60;;
27505;SDS011;14939;43.596;1.320;2022-09-09T16:57:45;5.03;;;0.90;;
27505;SDS011;14939;43.596;1.320;2022-09-09T17:00:14;4.07;;;0.98;;
27505;SDS011;14939;43.596;1.320;2022-09-09T17:02:41;4.68;;;1.27;;
27505;SDS011;14939;43.596;1.320;2022-09-09T17:05:08;5.00;;;1.20;;
27505;SDS011;14939;43.596;1.320;2022-09-09T17:07:34;12.75;;;1.50;;
27505;SDS011;14939;43.596;1.320;2022-09-09T17:10:01;5.78;;;0.90;;
27505;SDS011;14939;43.596;1.320;2022-09-09T17:12:26;6.40;;;1.38;;
27505;SDS011;14939;43.596;1.320;2022-09-09T17:14:52;7.50;;;1.20;;
27505;SDS011;14939;43.596;1.320;2022-09-09T17:17:20;8.68;;;1.15;;
27505;SDS011;14939;43.596;1.320;2022-09-09T17:19:46;8.38;;;1.38;;
27505;SDS011;14939;43.596;1.320;2022-09-09T17:22:12;4.47;;;1.02;;
27505;SDS011;14939;43.596;1.320;2022-09-09T17:24:38;3.85;;;1.08;;
27505;SDS011;14939;43.596;1.320;2022-09-09T17:27:03;13.13;;;1.48;;
27505;SDS011;14939;43.596;1.320;2022-09-09T17:29:29;5.45;;;0.88;;
27505;SDS011;14939;43.596;1.320;2022-09-09T17:31:55;6.10;;;1.10;;
27505;SDS011;14939;43.596;1.320;2022-09-09T17:34:21;3.67;;;0.90;;
27505;SDS011;14939;43.596;1.320;2022-09-09T17:36:47;4.80;;;0.93;;
27505;SDS011;14939;43.596;1.320;2022-09-09T17:39:13;3.78;;;0.82;;
27505;SDS011;14939;43.596;1.320;2022-09-09T17:41:39;3.85;;;1.00;;
27505;SDS011;14939;43.596;1.320;2022-09-09T17:44:06;6.78;;;1.13;;
27505;SDS011;14939;43.596;1.320;2022-09-09T17:46:34;5.47;;;1.00;;